createdAt,value
2023-03-19T00:02:17.179Z,9.50
2023-03-19T00:04:46.191Z,9.30
2023-03-19T00:07:14.113Z,9.20
2023-03-19T00:09:41.105Z,9.30
2023-03-19T00:12:08.590Z,9.40
2023-03-19T00:14:35.627Z,9.20
2023-03-19T00:17:02.389Z,9.10
2023-03-19T00:19:29.325Z,8.90
2023-03-19T00:21:56.921Z,8.90
2023-03-19T00:24:23.677Z,8.80
2023-03-19T00:26:51.064Z,9.00
2023-03-19T00:29:18.205Z,8.80
2023-03-19T00:31:45.390Z,8.80
2023-03-19T00:34:13.820Z,9.00
2023-03-19T00:36:40.587Z,8.80
2023-03-19T00:39:07.581Z,8.80
2023-03-19T00:41:34.295Z,8.70
2023-03-19T00:44:01.138Z,8.80
2023-03-19T00:46:27.923Z,8.60
2023-03-19T00:48:55.755Z,8.90
2023-03-19T00:51:24.101Z,8.80
2023-03-19T00:53:51.918Z,8.80
2023-03-19T00:56:19.822Z,9.10
2023-03-19T00:58:46.841Z,9.00
2023-03-19T01:01:16.698Z,8.80
2023-03-19T01:03:44.060Z,8.80
2023-03-19T01:06:11.517Z,8.50
2023-03-19T01:08:38.655Z,8.40
2023-03-19T01:11:08.426Z,8.20
2023-03-19T01:13:36.080Z,8.30
2023-03-19T01:16:03.232Z,8.20
2023-03-19T01:18:30.298Z,8.30
2023-03-19T01:20:57.475Z,8.30
2023-03-19T01:23:24.209Z,8.70
2023-03-19T01:25:51.550Z,8.30
2023-03-19T01:28:19.356Z,8.30
2023-03-19T01:30:47.217Z,8.40
2023-03-19T01:33:14.567Z,8.20
2023-03-19T01:35:41.558Z,8.30
2023-03-19T01:38:08.386Z,8.20
2023-03-19T01:40:35.386Z,8.40
2023-03-19T01:43:17.336Z,8.40
2023-03-19T01:45:44.870Z,8.10
2023-03-19T01:48:25.753Z,8.10
2023-03-19T01:50:54.026Z,8.10
2023-03-19T01:53:24.774Z,7.90
2023-03-19T01:55:55.282Z,7.90
2023-03-19T01:58:24.935Z,8.10
2023-03-19T02:00:53.162Z,8.20
2023-03-19T02:03:20.016Z,8.60
2023-03-19T02:05:49.321Z,8.60
2023-03-19T02:08:19.026Z,8.70
2023-03-19T02:10:55.865Z,8.50
2023-03-19T02:13:23.521Z,8.30
2023-03-19T02:15:51.812Z,8.30
2023-03-19T02:18:18.969Z,7.90
2023-03-19T02:21:06.819Z,8.30
2023-03-19T02:23:39.291Z,8.50
2023-03-19T02:26:10.439Z,8.60
2023-03-19T02:28:40.173Z,8.30
2023-03-19T02:31:08.615Z,8.40
2023-03-19T02:33:35.720Z,8.40
2023-03-19T02:36:05.268Z,8.10
2023-03-19T02:38:34.850Z,8.00
2023-03-19T02:41:07.311Z,8.00
2023-03-19T02:43:36.850Z,8.00
2023-03-19T02:46:06.334Z,8.00
2023-03-19T02:48:33.083Z,7.80
2023-03-19T02:50:59.829Z,8.00
2023-03-19T02:53:27.096Z,8.20
2023-03-19T02:55:53.839Z,8.00
2023-03-19T02:58:20.931Z,8.00
2023-03-19T03:00:47.726Z,7.90
2023-03-19T03:03:14.672Z,7.90
2023-03-19T03:05:41.378Z,8.10
2023-03-19T03:08:08.145Z,8.30
2023-03-19T03:10:35.242Z,8.40
2023-03-19T03:13:02.349Z,8.20
2023-03-19T03:15:29.733Z,7.90
2023-03-19T03:17:56.913Z,8.20
2023-03-19T03:20:24.757Z,7.80
2023-03-19T03:22:51.957Z,8.10
2023-03-19T03:25:18.768Z,7.90
2023-03-19T03:27:45.613Z,7.70
2023-03-19T03:30:12.712Z,7.80
2023-03-19T03:32:40.142Z,7.90
2023-03-19T03:35:08.392Z,8.00
2023-03-19T03:37:37.201Z,8.00
2023-03-19T03:40:08.297Z,7.80
2023-03-19T03:42:37.412Z,7.70
2023-03-19T03:45:07.296Z,7.60
2023-03-19T03:47:34.155Z,7.50
2023-03-19T03:50:01.231Z,7.50
2023-03-19T03:52:31.497Z,7.50
2023-03-19T03:54:58.562Z,7.20
2023-03-19T03:57:27.536Z,7.10
2023-03-19T03:59:54.732Z,6.90
2023-03-19T04:02:21.699Z,7.20
2023-03-19T04:04:48.850Z,7.10
2023-03-19T04:07:15.944Z,7.30
2023-03-19T04:09:42.877Z,7.50
2023-03-19T04:12:11.224Z,7.30
2023-03-19T04:14:38.177Z,7.00
2023-03-19T04:17:05.509Z,7.00
2023-03-19T04:19:32.580Z,6.90
2023-03-19T04:21:59.740Z,7.10
2023-03-19T04:24:26.679Z,6.90
2023-03-19T04:26:53.474Z,6.80
2023-03-19T04:29:20.401Z,7.10
2023-03-19T04:31:47.541Z,7.00
2023-03-19T04:34:14.310Z,7.00
2023-03-19T04:36:42.411Z,6.80
2023-03-19T04:39:09.990Z,6.70
2023-03-19T04:41:38.731Z,6.70
2023-03-19T04:44:05.862Z,6.60
2023-03-19T04:46:32.637Z,6.70
2023-03-19T04:48:59.902Z,6.60
2023-03-19T04:51:26.844Z,6.70
2023-03-19T04:53:53.868Z,6.90
2023-03-19T04:56:20.965Z,6.90
2023-03-19T04:58:47.802Z,6.90
2023-03-19T05:01:14.614Z,6.70
2023-03-19T05:03:41.437Z,6.60
2023-03-19T05:06:08.786Z,6.90
2023-03-19T05:08:35.930Z,6.70
2023-03-19T05:11:02.873Z,6.80
2023-03-19T05:13:29.889Z,6.80
2023-03-19T05:15:56.721Z,6.60
2023-03-19T05:18:23.717Z,6.60
2023-03-19T05:20:50.508Z,6.70
2023-03-19T05:23:17.926Z,6.90
2023-03-19T05:25:44.909Z,7.10
2023-03-19T05:28:12.443Z,7.00
2023-03-19T05:30:39.621Z,6.60
2023-03-19T05:33:07.000Z,6.80
2023-03-19T05:35:34.700Z,6.90
2023-03-19T05:38:01.488Z,6.80
2023-03-19T05:40:28.554Z,6.80
2023-03-19T05:42:55.315Z,6.50
2023-03-19T05:45:22.081Z,6.40
2023-03-19T05:47:50.070Z,6.30
2023-03-19T05:50:17.940Z,6.30
2023-03-19T05:52:45.145Z,6.30
2023-03-19T05:55:12.252Z,6.20
2023-03-19T05:57:38.983Z,6.20
2023-03-19T06:00:07.281Z,6.20
2023-03-19T06:02:35.639Z,6.30
2023-03-19T06:05:02.795Z,6.40
2023-03-19T06:07:29.632Z,6.60
2023-03-19T06:09:56.490Z,6.40
2023-03-19T06:12:23.869Z,6.70
2023-03-19T06:14:51.095Z,6.70
2023-03-19T06:17:18.250Z,6.40
2023-03-19T06:19:45.051Z,6.60
2023-03-19T06:22:12.071Z,6.50
2023-03-19T06:24:38.791Z,6.60
2023-03-19T06:27:05.844Z,6.60
2023-03-19T06:29:32.571Z,6.40
2023-03-19T06:31:59.292Z,6.60
2023-03-19T06:34:26.521Z,6.60
2023-03-19T06:36:53.875Z,6.50
2023-03-19T06:39:21.115Z,6.40
2023-03-19T06:41:48.050Z,6.40
2023-03-19T06:44:15.007Z,6.30
2023-03-19T06:46:42.187Z,6.20
2023-03-19T06:49:08.925Z,6.00
2023-03-19T06:51:35.780Z,6.00
2023-03-19T06:54:02.596Z,6.00
2023-03-19T06:56:29.488Z,6.20
2023-03-19T06:58:56.540Z,6.40
2023-03-19T07:01:23.918Z,6.20
2023-03-19T07:03:51.041Z,6.10
2023-03-19T07:06:17.870Z,6.20
2023-03-19T07:08:47.528Z,6.60
2023-03-19T07:11:15.768Z,6.80
2023-03-19T07:13:42.910Z,6.80
2023-03-19T07:16:09.718Z,6.70
2023-03-19T07:18:36.504Z,6.80
2023-03-19T07:21:03.813Z,7.00
2023-03-19T07:23:30.867Z,7.10
2023-03-19T07:25:57.594Z,7.00
2023-03-19T07:28:24.403Z,6.90
2023-03-19T07:30:54.501Z,7.10
2023-03-19T07:33:22.017Z,6.90
2023-03-19T07:35:48.891Z,7.00
2023-03-19T07:38:16.627Z,6.80
2023-03-19T07:40:54.766Z,6.90
2023-03-19T07:43:27.988Z,6.80
2023-03-19T07:45:54.784Z,7.00
2023-03-19T07:48:21.830Z,7.30
2023-03-19T07:50:51.398Z,7.30
2023-03-19T07:53:18.767Z,7.20
2023-03-19T07:55:45.659Z,7.00
2023-03-19T07:58:12.375Z,7.20
2023-03-19T08:00:39.194Z,7.20
2023-03-19T08:03:19.012Z,7.40
2023-03-19T08:05:52.402Z,7.50
2023-03-19T08:08:19.347Z,7.50
2023-03-19T08:10:47.979Z,7.60
2023-03-19T08:13:14.877Z,7.60
2023-03-19T08:15:41.774Z,7.50
2023-03-19T08:18:09.078Z,7.30
2023-03-19T08:20:36.103Z,7.40
2023-03-19T08:23:03.246Z,7.70
2023-03-19T08:25:32.497Z,7.90
2023-03-19T08:28:00.444Z,7.60
2023-03-19T08:30:27.615Z,7.60
2023-03-19T08:32:54.527Z,7.50
2023-03-19T08:35:21.345Z,7.60
2023-03-19T08:37:48.095Z,7.60
2023-03-19T08:40:14.879Z,7.60
2023-03-19T08:42:44.990Z,7.70
2023-03-19T08:45:13.624Z,8.10
2023-03-19T08:47:41.256Z,8.20
2023-03-19T08:50:08.974Z,8.00
2023-03-19T08:52:35.985Z,8.20
2023-03-19T08:55:03.613Z,8.40
2023-03-19T08:57:32.199Z,8.40
2023-03-19T08:59:58.984Z,8.10
2023-03-19T09:02:25.957Z,8.10
2023-03-19T09:04:52.801Z,8.20
2023-03-19T09:07:20.473Z,8.20
2023-03-19T09:09:47.355Z,8.40
2023-03-19T09:12:16.652Z,8.60
2023-03-19T09:14:43.884Z,8.30
2023-03-19T09:17:11.405Z,8.40
2023-03-19T09:19:38.376Z,8.20
2023-03-19T09:22:06.454Z,8.50
2023-03-19T09:24:33.212Z,8.70
2023-03-19T09:26:59.943Z,8.60
2023-03-19T09:29:28.132Z,8.70
2023-03-19T09:31:55.645Z,9.00
2023-03-19T09:34:22.636Z,8.80
2023-03-19T09:36:49.431Z,8.80
2023-03-19T09:39:16.262Z,9.20
2023-03-19T09:42:18.380Z,9.40
2023-03-19T09:44:46.522Z,9.30
2023-03-19T09:47:28.808Z,9.30
2023-03-19T09:50:02.134Z,9.00
2023-03-19T09:52:47.962Z,8.70
2023-03-19T09:55:27.944Z,9.00
2023-03-19T09:57:57.414Z,9.20
2023-03-19T10:00:28.810Z,9.10
2023-03-19T10:03:21.176Z,9.10
2023-03-19T10:06:13.271Z,9.10
2023-03-19T10:09:10.284Z,9.10
2023-03-19T10:12:01.257Z,8.90
2023-03-19T10:14:55.186Z,9.10
2023-03-19T10:17:29.193Z,9.50
2023-03-19T10:20:02.428Z,9.70
2023-03-19T10:22:38.044Z,9.90
2023-03-19T10:25:10.811Z,10.10
2023-03-19T10:27:38.044Z,9.70
2023-03-19T10:30:14.718Z,10.20
2023-03-19T10:32:50.729Z,10.30
2023-03-19T10:35:24.338Z,10.70
2023-03-19T10:37:51.172Z,10.90
2023-03-19T10:40:44.436Z,10.40
2023-03-19T10:43:16.369Z,10.80
2023-03-19T10:45:43.302Z,11.20
2023-03-19T10:48:18.240Z,10.40
2023-03-19T10:50:58.940Z,10.10
2023-03-19T10:53:39.223Z,10.40
2023-03-19T10:56:07.847Z,10.40
2023-03-19T10:58:36.792Z,10.60
2023-03-19T11:01:06.957Z,10.20
2023-03-19T11:03:39.533Z,10.40
2023-03-19T11:06:25.001Z,11.00
2023-03-19T11:09:02.647Z,10.80
2023-03-19T11:11:35.717Z,10.70
2023-03-19T11:14:30.250Z,11.00
2023-03-19T11:17:10.059Z,10.90
2023-03-19T11:19:43.662Z,10.90
2023-03-19T11:22:27.380Z,10.40
2023-03-19T11:24:57.113Z,10.80
2023-03-19T11:27:29.759Z,11.10
2023-03-19T11:29:56.842Z,11.00
2023-03-19T11:33:06.441Z,11.20
2023-03-19T11:35:42.374Z,11.60
2023-03-19T11:38:24.877Z,11.70
2023-03-19T11:41:06.261Z,11.20
2023-03-19T11:43:46.738Z,11.40
2023-03-19T11:46:25.598Z,11.80
2023-03-19T11:49:25.840Z,12.10
2023-03-19T11:52:07.306Z,12.00
2023-03-19T11:54:37.112Z,12.10
2023-03-19T11:57:24.144Z,12.10
2023-03-19T12:00:13.474Z,12.10
2023-03-19T12:02:54.117Z,12.70
2023-03-19T12:05:40.842Z,12.20
2023-03-19T12:08:21.961Z,12.00
2023-03-19T12:10:51.685Z,13.10
2023-03-19T12:13:31.132Z,13.40
2023-03-19T12:16:45.747Z,13.20
2023-03-19T12:19:50.510Z,12.90
2023-03-19T12:22:30.278Z,11.60
2023-03-19T12:25:16.932Z,11.80
2023-03-19T12:27:55.035Z,11.60
2023-03-19T12:30:30.792Z,11.30
2023-03-19T12:33:16.199Z,11.90
2023-03-19T12:35:46.153Z,12.10
2023-03-19T12:38:38.123Z,12.40
2023-03-19T12:41:11.176Z,12.40
2023-03-19T12:43:58.400Z,11.80
2023-03-19T12:46:33.233Z,12.40
2023-03-19T12:49:11.379Z,12.70
2023-03-19T12:51:45.615Z,13.20
2023-03-19T12:54:28.525Z,13.40
2023-03-19T12:56:58.625Z,13.40
2023-03-19T12:59:40.714Z,13.40
2023-03-19T13:02:17.400Z,12.60
2023-03-19T13:04:56.024Z,12.60
2023-03-19T13:07:34.216Z,13.20
2023-03-19T13:10:04.747Z,14.20
2023-03-19T13:12:35.783Z,14.90
2023-03-19T13:15:15.913Z,15.10
2023-03-19T13:17:42.624Z,15.90
2023-03-19T13:20:24.134Z,16.00
2023-03-19T13:22:59.254Z,14.60
2023-03-19T13:25:42.293Z,14.00
2023-03-19T13:28:18.861Z,13.50
2023-03-19T13:31:05.199Z,13.60
2023-03-19T13:33:35.088Z,13.60
2023-03-19T13:36:05.438Z,15.20
2023-03-19T13:38:40.558Z,16.40
2023-03-19T13:41:33.109Z,17.00
2023-03-19T13:44:18.701Z,16.30
2023-03-19T13:46:45.782Z,15.50
2023-03-19T13:49:33.981Z,14.90
2023-03-19T13:52:09.881Z,14.10
2023-03-19T13:54:41.491Z,14.70
2023-03-19T13:57:18.312Z,14.20
2023-03-19T13:59:50.854Z,13.90
2023-03-19T14:02:26.507Z,14.20
2023-03-19T14:05:23.024Z,13.90
2023-03-19T14:07:54.124Z,14.30
2023-03-19T14:10:27.864Z,13.60
2023-03-19T14:13:15.435Z,13.70
2023-03-19T14:15:50.229Z,13.80
2023-03-19T14:18:22.077Z,13.20
2023-03-19T14:20:59.365Z,12.60
2023-03-19T14:23:39.712Z,13.00
2023-03-19T14:26:15.834Z,12.70
2023-03-19T14:29:07.211Z,13.10
2023-03-19T14:31:54.113Z,14.10
2023-03-19T14:34:28.870Z,13.40
2023-03-19T14:37:04.333Z,12.80
2023-03-19T14:39:41.007Z,12.40
2023-03-19T14:42:30.185Z,12.40
2023-03-19T14:45:02.976Z,12.20
2023-03-19T14:47:49.024Z,12.50
2023-03-19T14:50:50.515Z,12.60
2023-03-19T14:53:27.447Z,12.70
2023-03-19T14:56:10.911Z,11.90
2023-03-19T14:58:37.936Z,12.40
2023-03-19T15:01:07.154Z,12.10
2023-03-19T15:03:37.651Z,11.90
2023-03-19T15:06:07.808Z,12.10
2023-03-19T15:08:38.314Z,12.20
2023-03-19T15:11:08.592Z,12.20
2023-03-19T15:13:49.966Z,12.40
2023-03-19T15:16:38.534Z,12.40
2023-03-19T15:19:11.855Z,12.10
2023-03-19T15:21:39.506Z,12.30
2023-03-19T15:24:13.270Z,12.50
2023-03-19T15:26:40.368Z,12.80
2023-03-19T15:29:12.069Z,13.30
2023-03-19T15:31:51.552Z,13.70
2023-03-19T15:34:23.637Z,13.90
2023-03-19T15:37:19.502Z,13.50
2023-03-19T15:39:51.699Z,13.00
2023-03-19T15:42:22.335Z,13.20
2023-03-19T15:45:11.009Z,12.80
2023-03-19T15:48:03.046Z,12.20
2023-03-19T15:50:33.530Z,12.20
2023-03-19T15:53:07.595Z,12.20
2023-03-19T15:55:36.502Z,12.30
2023-03-19T15:58:12.050Z,11.90
2023-03-19T16:00:41.336Z,12.00
2023-03-19T16:03:16.382Z,12.00
2023-03-19T16:05:43.418Z,11.70
2023-03-19T16:08:24.909Z,11.70
2023-03-19T16:10:53.182Z,11.50
2023-03-19T16:13:28.246Z,11.80
2023-03-19T16:16:06.011Z,11.90
2023-03-19T16:18:50.459Z,11.90
2023-03-19T16:21:29.560Z,11.90
2023-03-19T16:24:24.805Z,12.20
2023-03-19T16:26:52.215Z,12.20
2023-03-19T16:29:28.110Z,12.10
2023-03-19T16:31:57.965Z,12.00
2023-03-19T16:34:32.529Z,11.90
2023-03-19T16:37:00.445Z,12.20
2023-03-19T16:39:37.267Z,12.20
2023-03-19T16:42:26.233Z,12.10
2023-03-19T16:44:53.020Z,12.20
2023-03-19T16:47:22.869Z,12.20
2023-03-19T16:49:50.452Z,12.30
2023-03-19T16:52:22.685Z,12.20
2023-03-19T16:54:51.989Z,12.20
2023-03-19T16:57:19.355Z,11.60
2023-03-19T16:59:48.838Z,11.50
2023-03-19T17:02:20.991Z,11.40
2023-03-19T17:04:48.353Z,11.90
2023-03-19T17:07:15.387Z,11.90
2023-03-19T17:09:42.476Z,12.00
2023-03-19T17:12:14.596Z,12.10
2023-03-19T17:14:42.465Z,12.00
2023-03-19T17:17:20.439Z,11.90
2023-03-19T17:19:48.106Z,11.80
2023-03-19T17:22:14.919Z,11.90
2023-03-19T17:24:42.234Z,12.00
2023-03-19T17:27:09.992Z,12.10
2023-03-19T17:29:36.803Z,12.00
2023-03-19T17:32:06.966Z,12.00
2023-03-19T17:34:35.583Z,11.90
2023-03-19T17:37:04.696Z,11.90
2023-03-19T17:39:32.134Z,11.80
2023-03-19T17:41:59.387Z,11.90
2023-03-19T17:44:27.851Z,11.90
2023-03-19T17:46:55.909Z,12.00
2023-03-19T17:49:29.066Z,12.10
2023-03-19T17:51:56.920Z,12.00
2023-03-19T17:54:25.799Z,11.80
2023-03-19T17:56:53.027Z,11.80
2023-03-19T17:59:19.908Z,11.80
2023-03-19T18:01:49.781Z,12.00
2023-03-19T18:04:19.854Z,12.20
2023-03-19T18:06:50.719Z,12.10
2023-03-19T18:09:26.961Z,12.30
2023-03-19T18:11:53.859Z,12.50
2023-03-19T18:14:20.881Z,12.50
2023-03-19T18:16:48.075Z,12.50
2023-03-19T18:19:34.535Z,12.40
2023-03-19T18:22:01.597Z,12.30
2023-03-19T18:24:28.368Z,12.20
2023-03-19T18:26:55.334Z,12.00
2023-03-19T18:29:22.044Z,12.20
2023-03-19T18:31:50.665Z,12.10
2023-03-19T18:34:17.854Z,12.00
2023-03-19T18:36:44.743Z,12.10
2023-03-19T18:39:15.835Z,12.00
2023-03-19T18:41:43.525Z,12.10
2023-03-19T18:44:12.081Z,12.00
2023-03-19T18:46:40.396Z,11.90
2023-03-19T18:49:26.661Z,11.80
2023-03-19T18:52:02.606Z,11.90
2023-03-19T18:54:31.192Z,11.90
2023-03-19T18:56:59.513Z,11.90
2023-03-19T18:59:30.939Z,12.00
2023-03-19T19:02:01.725Z,12.10
2023-03-19T19:04:29.794Z,12.00
2023-03-19T19:06:56.737Z,11.90
2023-03-19T19:09:23.448Z,11.80
2023-03-19T19:11:50.459Z,11.80
2023-03-19T19:14:23.257Z,11.70
2023-03-19T19:16:51.300Z,11.60
2023-03-19T19:19:22.972Z,11.60
2023-03-19T19:21:51.102Z,11.50
2023-03-19T19:24:18.527Z,11.60
2023-03-19T19:26:47.445Z,11.70
2023-03-19T19:29:28.485Z,11.60
2023-03-19T19:31:55.861Z,11.40
2023-03-19T19:34:23.971Z,11.20
2023-03-19T19:36:51.237Z,11.10
2023-03-19T19:39:18.499Z,11.10
2023-03-19T19:41:46.554Z,11.00
2023-03-19T19:44:22.164Z,11.00
2023-03-19T19:46:53.466Z,11.00
2023-03-19T19:49:21.604Z,10.90
2023-03-19T19:51:48.373Z,10.90
2023-03-19T19:54:16.343Z,11.00
2023-03-19T19:56:43.295Z,10.90
2023-03-19T19:59:14.997Z,10.70
2023-03-19T20:01:41.951Z,10.60
2023-03-19T20:04:14.088Z,10.70
2023-03-19T20:06:40.913Z,10.70
2023-03-19T20:09:07.842Z,10.70
2023-03-19T20:11:34.625Z,10.70
2023-03-19T20:14:01.873Z,10.80
2023-03-19T20:16:28.718Z,10.70
2023-03-19T20:18:55.596Z,10.70
2023-03-19T20:21:22.888Z,10.60
2023-03-19T20:23:53.044Z,10.70
2023-03-19T20:26:22.345Z,10.80
2023-03-19T20:28:51.042Z,10.80
2023-03-19T20:31:25.348Z,11.00
2023-03-19T20:33:52.139Z,11.10
2023-03-19T20:36:19.608Z,11.00
2023-03-19T20:38:46.595Z,11.00
2023-03-19T20:41:21.804Z,11.00
2023-03-19T20:43:50.869Z,11.00
2023-03-19T20:46:20.392Z,11.20
2023-03-19T20:48:48.027Z,11.30
2023-03-19T20:51:21.581Z,11.30
2023-03-19T20:53:49.810Z,11.10
2023-03-19T20:56:20.078Z,11.20
2023-03-19T20:58:47.001Z,10.90
2023-03-19T21:01:15.437Z,10.90
2023-03-19T21:03:42.679Z,10.90
2023-03-19T21:06:19.855Z,10.90
2023-03-19T21:08:54.432Z,10.70
2023-03-19T21:11:23.524Z,10.50
2023-03-19T21:13:52.634Z,10.70
2023-03-19T21:16:22.899Z,10.80
2023-03-19T21:18:49.968Z,10.60
2023-03-19T21:21:18.684Z,10.60
2023-03-19T21:24:16.462Z,10.50
2023-03-19T21:26:44.657Z,10.40
2023-03-19T21:29:27.133Z,10.50
2023-03-19T21:31:55.495Z,10.50
2023-03-19T21:34:23.961Z,10.20
2023-03-19T21:36:50.931Z,10.00
2023-03-19T21:39:17.946Z,10.20
2023-03-19T21:41:46.742Z,10.30
2023-03-19T21:44:16.760Z,10.10
2023-03-19T21:46:46.925Z,10.10
2023-03-19T21:49:14.295Z,10.20
2023-03-19T21:51:42.891Z,10.20
2023-03-19T21:54:12.370Z,10.10
2023-03-19T21:56:41.740Z,10.00
2023-03-19T21:59:19.056Z,9.90
2023-03-19T22:01:46.615Z,10.10
2023-03-19T22:04:13.638Z,10.10
2023-03-19T22:06:40.757Z,10.00
2023-03-19T22:09:07.560Z,9.90
2023-03-19T22:11:37.110Z,10.00
2023-03-19T22:14:17.934Z,9.90
2023-03-19T22:16:45.799Z,10.20
2023-03-19T22:19:15.002Z,10.10
2023-03-19T22:21:41.821Z,10.00
2023-03-19T22:24:08.652Z,10.10
2023-03-19T22:26:38.842Z,10.10
2023-03-19T22:29:16.368Z,9.80
2023-03-19T22:31:43.358Z,9.80
2023-03-19T22:34:14.779Z,9.70
2023-03-19T22:36:41.578Z,9.90
2023-03-19T22:39:09.183Z,9.60
2023-03-19T22:41:39.283Z,9.80
2023-03-19T22:44:11.539Z,10.00
2023-03-19T22:46:38.325Z,10.00
2023-03-19T22:49:16.627Z,9.70
2023-03-19T22:51:43.794Z,9.70
2023-03-19T22:54:13.937Z,9.80
2023-03-19T22:56:40.685Z,10.00
2023-03-19T22:59:07.516Z,9.90
2023-03-19T23:01:43.450Z,10.00
2023-03-19T23:04:18.113Z,9.90
2023-03-19T23:06:45.322Z,9.70
2023-03-19T23:09:18.990Z,9.40
2023-03-19T23:11:46.356Z,9.50
2023-03-19T23:14:28.109Z,9.50
2023-03-19T23:19:28.293Z,9.50
2023-03-19T23:21:55.594Z,9.70
2023-03-19T23:24:22.599Z,9.90
2023-03-19T23:26:51.802Z,9.70
2023-03-19T23:29:24.331Z,9.50
2023-03-19T23:31:51.890Z,9.70
2023-03-19T23:34:19.137Z,9.70
2023-03-19T23:36:46.266Z,9.40
2023-03-19T23:39:14.054Z,9.30
2023-03-19T23:41:48.452Z,9.50
2023-03-19T23:44:17.700Z,9.40
2023-03-19T23:46:46.716Z,9.40
2023-03-19T23:49:15.395Z,9.20
2023-03-19T23:51:42.575Z,9.30
2023-03-19T23:54:29.321Z,9.10
2023-03-19T23:56:59.711Z,9.30
2023-03-19T23:59:29.434Z,9.20
